createdAt,value
2019-02-17T00:00:04.139Z,60.37
2019-02-17T00:05:08.475Z,59.84
2019-02-17T00:10:12.706Z,60.14
2019-02-17T00:15:17.318Z,60.17
2019-02-17T00:20:21.366Z,60.11
2019-02-17T00:25:25.389Z,60.54
2019-02-17T00:30:29.603Z,60.21
2019-02-17T00:35:33.745Z,60.87
2019-02-17T00:40:37.927Z,60.87
2019-02-17T00:45:42.108Z,60.99
2019-02-17T00:50:46.208Z,61.25
2019-02-17T00:55:50.245Z,61.17
2019-02-17T01:00:56.116Z,61.17
2019-02-17T01:06:00.298Z,60.94
2019-02-17T01:11:04.558Z,61.19
2019-02-17T01:16:08.605Z,61.19
2019-02-17T01:21:12.648Z,61.04
2019-02-17T01:26:16.777Z,61.48
2019-02-17T01:31:20.974Z,61.48
2019-02-17T01:36:25.034Z,61.45
2019-02-17T01:41:29.185Z,61.62
2019-02-17T01:46:33.400Z,61.10
2019-02-17T01:51:37.574Z,61.32
2019-02-17T01:56:41.679Z,61.10
2019-02-17T02:01:45.789Z,61.68
2019-02-17T02:06:49.881Z,62.06
2019-02-17T02:11:53.918Z,62.07
2019-02-17T02:16:57.932Z,61.64
2019-02-17T02:22:02.022Z,61.76
2019-02-17T02:27:06.186Z,62.28
2019-02-17T02:32:10.288Z,62.02
2019-02-17T02:37:14.334Z,62.04
2019-02-17T02:42:18.325Z,62.43
2019-02-17T02:47:22.456Z,62.60
2019-02-17T02:52:26.657Z,62.84
2019-02-17T02:57:30.712Z,62.80
2019-02-17T03:02:34.761Z,62.70
2019-02-17T03:07:38.891Z,62.97
2019-02-17T03:12:43.071Z,62.62
2019-02-17T03:17:47.133Z,62.62
2019-02-17T03:22:51.262Z,63.24
2019-02-17T03:27:55.437Z,62.84
2019-02-17T03:32:59.488Z,63.24
2019-02-17T03:38:03.547Z,63.24
2019-02-17T03:43:07.693Z,63.57
2019-02-17T03:48:11.729Z,63.57
2019-02-17T03:53:15.771Z,63.38
2019-02-17T03:58:19.987Z,63.83
2019-02-17T04:03:24.014Z,63.89
2019-02-17T04:08:28.033Z,64.02
2019-02-17T04:13:32.219Z,63.62
2019-02-17T04:18:36.430Z,63.62
2019-02-17T04:23:40.522Z,64.24
2019-02-17T04:28:44.521Z,64.24
2019-02-17T04:33:48.614Z,63.78
2019-02-17T04:38:52.673Z,64.40
2019-02-17T04:43:56.716Z,64.40
2019-02-17T04:49:00.831Z,64.28
2019-02-17T04:54:04.955Z,64.28
2019-02-17T04:59:09.153Z,64.34
2019-02-17T05:04:13.186Z,64.30
2019-02-17T05:09:17.300Z,64.59
2019-02-17T05:14:21.379Z,64.65
2019-02-17T05:19:25.560Z,64.75
2019-02-17T05:24:29.592Z,64.39
2019-02-17T05:29:33.794Z,64.71
2019-02-17T05:34:37.853Z,64.43
2019-02-17T05:39:41.865Z,65.07
2019-02-17T05:44:46.059Z,64.97
2019-02-17T05:49:50.263Z,64.51
2019-02-17T05:54:54.355Z,64.63
2019-02-17T05:59:58.411Z,64.68
2019-02-17T06:05:02.627Z,65.10
2019-02-17T06:10:07.914Z,64.73
2019-02-17T06:15:11.929Z,65.21
2019-02-17T06:20:15.941Z,65.05
2019-02-17T06:25:20.217Z,64.99
2019-02-17T06:30:24.281Z,64.99
2019-02-17T06:35:28.393Z,65.31
2019-02-17T06:40:32.409Z,65.69
2019-02-17T06:45:36.495Z,65.69
2019-02-17T06:50:40.515Z,65.21
2019-02-17T06:55:51.989Z,65.48
2019-02-17T07:00:58.006Z,65.89
2019-02-17T07:06:19.705Z,65.88
2019-02-17T07:11:23.761Z,65.88
2019-02-17T07:16:27.793Z,65.97
2019-02-17T07:21:31.812Z,65.99
2019-02-17T07:26:35.811Z,66.48
2019-02-17T07:31:48.071Z,66.39
2019-02-17T07:36:52.123Z,66.52
2019-02-17T07:41:56.210Z,66.29
2019-02-17T07:47:00.273Z,65.99
2019-02-17T07:52:04.449Z,46.26
2019-02-17T07:57:08.543Z,46.10
2019-02-17T08:02:12.658Z,48.30
2019-02-17T08:07:16.732Z,51.07
2019-02-17T08:12:20.768Z,51.07
2019-02-17T08:17:24.848Z,48.56
2019-02-17T08:22:28.956Z,49.69
2019-02-17T08:27:33.105Z,50.30
2019-02-17T08:32:37.329Z,50.16
2019-02-17T08:37:41.478Z,50.01
2019-02-17T08:42:45.591Z,50.85
2019-02-17T08:47:49.776Z,51.49
2019-02-17T08:52:53.999Z,51.44
2019-02-17T08:57:58.053Z,51.40
2019-02-17T09:03:02.100Z,52.07
2019-02-17T09:08:06.234Z,52.07
2019-02-17T09:13:10.277Z,52.82
2019-02-17T09:18:14.491Z,52.45
2019-02-17T09:23:18.532Z,53.08
2019-02-17T09:28:22.580Z,53.34
2019-02-17T09:33:26.648Z,53.34
2019-02-17T09:38:30.724Z,52.69
2019-02-17T09:43:34.843Z,53.52
2019-02-17T09:48:38.977Z,53.93
2019-02-17T09:53:43.180Z,52.90
2019-02-17T09:58:47.373Z,54.06
2019-02-17T10:03:51.492Z,54.57
2019-02-17T10:08:55.642Z,54.44
2019-02-17T10:13:59.898Z,54.78
2019-02-17T10:19:04.251Z,54.91
2019-02-17T10:24:08.420Z,55.20
2019-02-17T10:29:12.691Z,55.20
2019-02-17T10:34:16.900Z,55.19
2019-02-17T10:39:21.120Z,55.31
2019-02-17T10:44:25.203Z,55.81
2019-02-17T10:49:29.458Z,55.81
2019-02-17T10:54:33.632Z,55.30
2019-02-17T10:59:37.815Z,55.50
2019-02-17T11:04:41.909Z,55.61
2019-02-17T11:09:46.101Z,55.61
2019-02-17T11:14:50.967Z,56.28
2019-02-17T11:19:55.223Z,55.85
2019-02-17T11:24:59.467Z,55.85
2019-02-17T11:30:05.536Z,55.99
2019-02-17T11:35:10.664Z,55.99
2019-02-17T11:40:14.971Z,57.05
2019-02-17T11:45:19.168Z,58.00
2019-02-17T11:50:23.343Z,57.20
2019-02-17T11:55:27.434Z,57.52
2019-02-17T12:00:31.573Z,57.52
2019-02-17T12:05:35.623Z,57.80
2019-02-17T12:10:39.658Z,56.98
2019-02-17T12:15:43.781Z,56.50
2019-02-17T12:21:05.497Z,56.15
2019-02-17T12:26:14.027Z,57.23
2019-02-17T12:31:25.017Z,56.26
2019-02-17T12:36:29.359Z,56.16
2019-02-17T12:41:33.652Z,56.00
2019-02-17T12:46:37.834Z,56.00
2019-02-17T12:51:42.027Z,55.91
2019-02-17T12:56:46.158Z,55.91
2019-02-17T13:01:50.379Z,55.61
2019-02-17T13:06:54.561Z,55.66
2019-02-17T13:11:58.706Z,55.56
2019-02-17T13:17:02.807Z,55.63
2019-02-17T13:22:07.040Z,55.12
2019-02-17T13:27:11.303Z,55.71
2019-02-17T13:32:15.517Z,55.23
2019-02-17T13:37:19.648Z,55.22
2019-02-17T13:42:24.000Z,55.02
2019-02-17T13:47:28.145Z,55.37
2019-02-17T13:52:32.309Z,55.09
2019-02-17T13:57:36.482Z,55.17
2019-02-17T14:02:40.738Z,55.42
2019-02-17T14:07:44.948Z,55.02
2019-02-17T14:12:49.071Z,55.38
2019-02-17T14:17:53.300Z,55.21
2019-02-17T14:22:57.566Z,56.46
2019-02-17T14:28:01.701Z,56.24
2019-02-17T14:33:05.791Z,56.17
2019-02-17T14:38:09.894Z,56.16
2019-02-17T14:43:14.004Z,56.13
2019-02-17T14:48:18.133Z,56.13
2019-02-17T14:53:22.211Z,55.80
2019-02-17T14:58:26.255Z,55.57
2019-02-17T15:03:30.274Z,56.02
2019-02-17T15:08:34.331Z,55.93
2019-02-17T15:13:38.588Z,55.50
2019-02-17T15:18:42.955Z,55.72
2019-02-17T15:23:47.033Z,55.42
2019-02-17T15:28:51.645Z,55.64
2019-02-17T15:33:55.899Z,55.29
2019-02-17T15:38:59.945Z,55.70
2019-02-17T15:44:04.118Z,55.64
2019-02-17T15:49:08.272Z,55.04
2019-02-17T15:54:12.347Z,55.76
2019-02-17T15:59:16.382Z,55.24
2019-02-17T16:04:28.254Z,55.24
2019-02-17T16:09:26.343Z,55.39
2019-02-17T16:14:30.489Z,55.23
2019-02-17T16:19:34.546Z,55.54
2019-02-17T16:24:38.756Z,55.54
2019-02-17T16:29:43.003Z,55.50
2019-02-17T16:34:47.170Z,55.50
2019-02-17T16:39:51.217Z,55.27
2019-02-17T16:44:55.242Z,56.56
2019-02-17T16:49:59.386Z,56.83
2019-02-17T16:55:03.742Z,57.16
2019-02-17T17:00:09.965Z,56.68
2019-02-17T17:05:14.421Z,57.16
2019-02-17T17:10:18.627Z,55.07
2019-02-17T17:15:22.795Z,53.84
2019-02-17T17:20:26.945Z,53.68
2019-02-17T17:25:31.161Z,53.91
2019-02-17T17:30:35.380Z,53.62
2019-02-17T17:35:39.549Z,53.62
2019-02-17T17:40:43.646Z,53.49
2019-02-17T17:45:47.786Z,53.92
2019-02-17T17:50:51.942Z,54.42
2019-02-17T17:55:56.007Z,54.48
2019-02-17T18:01:00.151Z,54.62
2019-02-17T18:06:04.330Z,54.08
2019-02-17T18:11:08.441Z,53.83
2019-02-17T18:16:12.589Z,53.34
2019-02-17T18:21:16.652Z,53.76
2019-02-17T18:26:20.824Z,53.76
2019-02-17T18:31:25.154Z,54.50
2019-02-17T18:36:29.311Z,54.31
2019-02-17T18:41:33.451Z,54.72
2019-02-17T18:46:37.640Z,54.52
2019-02-17T18:51:41.979Z,54.39
2019-02-17T18:56:46.081Z,54.92
2019-02-17T19:01:50.237Z,55.26
2019-02-17T19:06:54.462Z,55.31
2019-02-17T19:11:58.600Z,55.17
2019-02-17T19:17:02.670Z,54.89
2019-02-17T19:22:06.854Z,54.75
2019-02-17T19:27:10.923Z,54.79
2019-02-17T19:32:16.265Z,54.98
2019-02-17T19:37:20.491Z,54.49
2019-02-17T19:42:24.625Z,53.83
2019-02-17T19:47:28.702Z,54.31
2019-02-17T19:52:32.750Z,55.33
2019-02-17T19:57:36.836Z,55.33
2019-02-17T20:02:58.563Z,55.10
2019-02-17T20:08:02.760Z,55.09
2019-02-17T20:13:08.411Z,54.88
2019-02-17T20:18:12.675Z,55.38
2019-02-17T20:23:16.819Z,55.36
2019-02-17T20:28:32.469Z,55.68
2019-02-17T20:33:26.766Z,55.52
2019-02-17T20:38:30.830Z,55.52
2019-02-17T20:43:34.928Z,56.07
2019-02-17T20:48:39.019Z,56.15
2019-02-17T20:53:43.125Z,56.29
2019-02-17T20:58:47.186Z,56.76
2019-02-17T21:03:51.482Z,56.32
2019-02-17T21:08:55.519Z,56.35
2019-02-17T21:13:59.579Z,56.70
2019-02-17T21:19:03.693Z,56.33
2019-02-17T21:24:07.749Z,56.64
2019-02-17T21:29:11.792Z,56.64
2019-02-17T21:34:15.843Z,56.39
2019-02-17T21:39:19.923Z,57.29
2019-02-17T21:44:23.993Z,56.91
2019-02-17T21:49:28.040Z,56.84
2019-02-17T21:54:32.255Z,56.63
2019-02-17T21:59:36.301Z,56.63
2019-02-17T22:04:40.351Z,57.08
2019-02-17T22:09:44.429Z,57.51
2019-02-17T22:14:48.477Z,57.19
2019-02-17T22:19:52.605Z,57.66
2019-02-17T22:24:56.650Z,57.33
2019-02-17T22:30:00.697Z,58.06
2019-02-17T22:35:05.262Z,58.21
2019-02-17T22:40:09.851Z,58.37
2019-02-17T22:45:14.078Z,57.97
2019-02-17T22:50:18.121Z,57.97
2019-02-17T22:55:22.189Z,58.90
2019-02-17T23:00:53.143Z,58.35
2019-02-17T23:05:57.394Z,59.22
2019-02-17T23:11:01.554Z,59.22
2019-02-17T23:16:05.895Z,58.77
2019-02-17T23:21:10.146Z,58.97
2019-02-17T23:26:14.207Z,58.97
2019-02-17T23:31:18.321Z,59.19
2019-02-17T23:36:23.234Z,59.81
2019-02-17T23:41:27.326Z,59.06
2019-02-17T23:46:31.503Z,59.06
2019-02-17T23:51:35.833Z,59.89
2019-02-17T23:56:40.131Z,59.69
